createdAt,value
2018-07-25T00:30:21.301Z,98274.84
2018-07-25T00:32:50.277Z,98273.67
2018-07-25T00:35:16.866Z,98273.31
2018-07-25T00:37:43.352Z,98280.32
2018-07-25T00:40:10.039Z,98279.45
2018-07-25T00:42:36.839Z,98282.86
2018-07-25T00:45:03.284Z,98280.84
2018-07-25T00:47:29.791Z,98282.09
2018-07-25T00:49:59.815Z,98277.80
2018-07-25T00:52:29.617Z,98278.78
2018-07-25T00:54:57.652Z,98282.80
2018-07-25T00:57:24.149Z,98278.95
2018-07-25T00:59:50.632Z,98281.44
2018-07-25T01:02:17.528Z,98282.73
2018-07-25T01:04:43.969Z,98280.69
2018-07-25T01:07:10.430Z,98287.63
2018-07-25T01:09:36.942Z,98279.91
2018-07-25T01:12:04.903Z,98281.05
2018-07-25T01:14:31.370Z,98289.22
2018-07-25T01:16:57.820Z,98288.19
2018-07-25T01:19:24.323Z,98288.09
2018-07-25T01:21:51.175Z,98289.30
2018-07-25T01:24:17.678Z,98283.77
2018-07-25T01:26:44.151Z,98278.68
2018-07-25T01:29:12.016Z,98281.69
2018-07-25T01:31:38.522Z,98283.66
2018-07-25T01:34:04.981Z,98284.99
2018-07-25T01:36:31.489Z,98288.52
2018-07-25T01:38:59.270Z,98290.42
2018-07-25T01:41:25.722Z,98291.99
2018-07-25T01:43:52.185Z,98294.55
2018-07-25T01:46:19.176Z,98291.37
2018-07-25T01:48:46.122Z,98296.23
2018-07-25T01:51:12.588Z,98293.29
2018-07-25T01:53:39.099Z,98291.15
2018-07-25T01:56:05.650Z,98298.36
2018-07-25T01:58:32.119Z,98299.88
2018-07-25T02:00:58.587Z,98296.20
2018-07-25T02:03:25.101Z,98293.50
2018-07-25T02:05:52.055Z,98296.09
2018-07-25T02:08:18.659Z,98300.34
2018-07-25T02:10:45.187Z,98308.52
2018-07-25T02:13:11.671Z,98305.75
2018-07-25T02:15:38.652Z,98301.80
2018-07-25T02:18:05.157Z,98306.27
2018-07-25T02:20:31.618Z,98308.67
2018-07-25T02:22:58.093Z,98307.61
2018-07-25T02:25:26.040Z,98308.25
2018-07-25T02:27:52.540Z,98304.56
2018-07-25T02:30:19.029Z,98300.64
2018-07-25T02:32:45.523Z,98306.98
2018-07-25T02:35:12.400Z,98313.16
2018-07-25T02:37:39.654Z,98310.34
2018-07-25T02:40:06.159Z,98307.88
2018-07-25T02:42:32.710Z,98311.10
2018-07-25T02:44:59.592Z,98323.08
2018-07-25T02:47:26.081Z,98320.16
2018-07-25T02:49:52.545Z,98311.68
2018-07-25T02:52:19.371Z,98311.28
2018-07-25T02:54:45.880Z,98319.48
2018-07-25T02:57:12.349Z,98318.16
2018-07-25T02:59:39.307Z,98324.44
2018-07-25T03:02:05.772Z,98322.98
2018-07-25T03:04:32.287Z,98326.50
2018-07-25T03:06:58.901Z,98329.77
2018-07-25T03:09:25.791Z,98333.31
2018-07-25T03:11:52.299Z,98329.13
2018-07-25T03:14:18.779Z,98334.98
2018-07-25T03:16:45.271Z,98342.22
2018-07-25T03:19:12.260Z,98338.11
2018-07-25T03:21:38.753Z,98341.73
2018-07-25T03:24:05.249Z,98335.11
2018-07-25T03:26:31.731Z,98338.94
2018-07-25T03:28:58.244Z,98332.88
2018-07-25T03:31:24.785Z,98337.17
2018-07-25T03:33:55.952Z,98337.52
2018-07-25T03:36:23.491Z,98343.22
2018-07-25T03:38:50.448Z,98339.42
2018-07-25T03:41:16.923Z,98339.77
2018-07-25T03:43:43.896Z,98347.56
2018-07-25T03:46:10.516Z,98343.94
2018-07-25T03:48:36.986Z,98349.89
2018-07-25T03:51:03.474Z,98340.80
2018-07-25T03:53:30.474Z,98349.52
2018-07-25T03:55:56.927Z,98340.80
2018-07-25T03:58:23.394Z,98343.12
2018-07-25T04:00:49.860Z,98349.17
2018-07-25T04:03:16.822Z,98346.77
2018-07-25T04:05:43.370Z,98346.98
2018-07-25T04:08:10.624Z,98341.95
2018-07-25T04:10:37.528Z,98341.91
2018-07-25T04:13:04.009Z,98342.80
2018-07-25T04:15:30.507Z,98336.45
2018-07-25T04:17:57.425Z,98342.91
2018-07-25T04:20:23.921Z,98346.30
2018-07-25T04:22:50.419Z,98347.63
2018-07-25T04:25:16.943Z,98344.64
2018-07-25T04:27:43.769Z,98346.67
2018-07-25T04:30:10.408Z,98350.84
2018-07-25T04:32:36.868Z,98348.70
2018-07-25T04:35:03.330Z,98348.16
2018-07-25T04:37:30.232Z,98349.53
2018-07-25T04:39:56.700Z,98349.45
2018-07-25T04:42:23.460Z,98349.21
2018-07-25T04:44:50.426Z,98348.89
2018-07-25T04:47:16.932Z,98351.86
2018-07-25T04:49:43.419Z,98352.50
2018-07-25T04:52:10.518Z,98356.24
2018-07-25T04:54:37.043Z,98356.75
2018-07-25T04:57:03.679Z,98356.80
2018-07-25T04:59:30.209Z,98354.33
2018-07-25T05:01:56.757Z,98360.05
2018-07-25T05:04:23.685Z,98360.90
2018-07-25T05:06:50.207Z,98359.41
2018-07-25T05:09:16.696Z,98363.88
2018-07-25T05:11:43.634Z,98368.86
2018-07-25T05:14:10.103Z,98365.00
2018-07-25T05:16:36.588Z,98380.77
2018-07-25T05:19:03.468Z,98384.41
2018-07-25T05:21:29.941Z,98386.83
2018-07-25T05:23:56.537Z,98386.33
2018-07-25T05:26:23.497Z,98376.38
2018-07-25T05:28:49.995Z,98379.58
2018-07-25T05:31:16.488Z,98386.54
2018-07-25T05:33:43.274Z,98385.87
2018-07-25T05:36:10.776Z,98386.44
2018-07-25T05:38:37.262Z,98390.44
2018-07-25T05:41:04.040Z,98383.64
2018-07-25T05:43:30.504Z,98391.20
2018-07-25T05:45:57.761Z,98396.36
2018-07-25T05:48:24.554Z,98389.28
2018-07-25T05:50:51.029Z,98392.86
2018-07-25T05:53:17.485Z,98400.68
2018-07-25T05:55:44.238Z,98407.70
2018-07-25T05:58:10.698Z,98406.42
2018-07-25T06:00:37.172Z,98410.09
2018-07-25T06:03:04.070Z,98411.59
2018-07-25T06:05:30.631Z,98406.93
2018-07-25T06:07:57.143Z,98403.52
2018-07-25T06:10:24.781Z,98415.30
2018-07-25T06:12:51.300Z,98414.19
2018-07-25T06:15:17.826Z,98409.45
2018-07-25T06:17:44.589Z,98413.66
2018-07-25T06:20:11.060Z,98405.19
2018-07-25T06:22:37.528Z,98415.14
2018-07-25T06:25:05.127Z,98420.83
2018-07-25T06:27:31.635Z,98419.73
2018-07-25T06:29:58.369Z,98418.63
2018-07-25T06:32:25.154Z,98413.70
2018-07-25T06:34:51.681Z,98419.34
2018-07-25T06:37:18.223Z,98426.40
2018-07-25T06:39:45.076Z,98422.17
2018-07-25T06:42:12.629Z,98416.61
2018-07-25T06:44:39.162Z,98410.95
2018-07-25T06:47:07.009Z,98405.42
2018-07-25T06:49:34.135Z,98410.52
2018-07-25T06:52:00.677Z,98414.74
2018-07-25T06:54:28.685Z,98417.44
2018-07-25T06:56:55.270Z,98417.45
2018-07-25T06:59:21.804Z,98420.87
2018-07-25T07:01:48.685Z,98421.72
2018-07-25T07:04:15.229Z,98424.25
2018-07-25T07:06:41.812Z,98429.29
2018-07-25T07:09:08.680Z,98439.91
2018-07-25T07:11:36.036Z,98440.86
2018-07-25T07:14:02.589Z,98442.05
2018-07-25T07:16:29.420Z,98432.72
2018-07-25T07:18:55.960Z,98433.16
2018-07-25T07:21:22.501Z,98429.42
2018-07-25T07:23:49.428Z,98433.47
2018-07-25T07:26:15.948Z,98440.67
2018-07-25T07:28:42.464Z,98442.46
2018-07-25T07:31:09.902Z,98440.26
2018-07-25T07:33:36.457Z,98440.27
2018-07-25T07:36:02.980Z,98443.83
2018-07-25T07:38:29.854Z,98443.14
2018-07-25T07:40:57.046Z,98445.34
2018-07-25T07:43:23.580Z,98440.72
2018-07-25T07:45:50.416Z,98443.20
2018-07-25T07:48:16.929Z,98447.28
2018-07-25T07:50:43.453Z,98450.98
2018-07-25T07:53:10.295Z,98445.50
2018-07-25T07:55:37.837Z,98448.86
2018-07-25T07:58:04.397Z,98445.70
2018-07-25T08:00:32.141Z,98444.05
2018-07-25T08:02:59.268Z,98437.16
2018-07-25T08:05:26.090Z,98438.75
2018-07-25T08:07:52.609Z,98437.52
2018-07-25T08:10:20.116Z,98440.98
2018-07-25T08:12:47.893Z,98445.22
2018-07-25T08:15:14.440Z,98441.95
2018-07-25T08:17:43.136Z,98443.04
2018-07-25T08:20:10.034Z,98443.70
2018-07-25T08:22:36.772Z,98448.67
2018-07-25T08:25:04.438Z,98441.02
2018-07-25T08:27:31.333Z,98442.33
2018-07-25T08:29:59.052Z,98445.85
2018-07-25T08:32:25.713Z,98444.06
2018-07-25T08:34:52.645Z,98443.48
2018-07-25T08:37:19.214Z,98444.67
2018-07-25T08:39:45.812Z,98446.45
2018-07-25T08:42:12.873Z,98441.44
2018-07-25T08:44:40.361Z,98448.07
2018-07-25T08:47:07.940Z,98439.89
2018-07-25T08:49:35.746Z,98445.16
2018-07-25T08:52:02.394Z,98445.16
2018-07-25T08:54:32.439Z,98439.42
2018-07-25T08:56:59.960Z,98437.43
2018-07-25T08:59:26.497Z,98446.86
2018-07-25T09:01:53.086Z,98441.58
2018-07-25T09:04:20.000Z,98444.53
2018-07-25T09:06:46.577Z,98441.05
2018-07-25T09:09:17.384Z,98444.57
2018-07-25T09:11:44.234Z,98446.10
2018-07-25T09:14:10.801Z,98440.05
